Time;durP1;ratioP1;P1;durP2;ratioP2;P2;SDS_P1;SDS_P2;PMS_P1;PMS_P2;Temp;Humidity;BMP_temperature;BMP_pressure;BME280_temperature;BME280_humidity;BME280_pressure;Samples;Min_cycle;Max_cycle;Signal;HPM_P1;HPM_P2
2021/05/14 00:00:11;;;;;;;1.63;1.10;;;22.50;37.80;;;;;;5006363;28;20194;-43
2021/05/14 00:02:39;;;;;;;1.23;1.13;;;22.30;38.30;;;;;;5007025;28;20230;-43
2021/05/14 00:05:06;;;;;;;2.03;0.93;;;22.00;38.60;;;;;;5011098;28;20452;-44
2021/05/14 00:07:31;;;;;;;1.53;1.00;;;21.80;39.00;;;;;;5012421;28;20516;-42
2021/05/14 00:09:57;;;;;;;1.30;1.20;;;21.70;39.20;;;;;;5009096;28;20436;-44
2021/05/14 00:12:23;;;;;;;1.50;1.40;;;21.50;39.50;;;;;;5009129;28;20193;-42
2021/05/14 00:14:48;;;;;;;2.10;1.37;;;21.30;39.90;;;;;;5009750;28;20226;-42
2021/05/14 00:17:14;;;;;;;1.63;1.10;;;21.20;40.00;;;;;;5012134;28;20218;-42
2021/05/14 00:19:39;;;;;;;0.87;0.87;;;20.90;40.30;;;;;;5009354;28;20233;-42
2021/05/14 00:22:05;;;;;;;1.23;1.13;;;20.80;40.80;;;;;;5009495;28;20240;-43
2021/05/14 00:24:32;;;;;;;1.13;1.03;;;20.60;41.20;;;;;;5012335;28;20205;-44
2021/05/14 00:26:58;;;;;;;3.43;1.20;;;20.50;41.70;;;;;;5012789;28;20197;-43
2021/05/14 00:29:24;;;;;;;2.60;0.83;;;20.50;41.60;;;;;;5006337;28;20592;-42
2021/05/14 00:31:50;;;;;;;1.10;1.00;;;20.50;41.20;;;;;;5008375;28;20532;-43
2021/05/14 00:34:15;;;;;;;1.80;1.00;;;20.50;41.30;;;;;;5011023;28;20249;-42
2021/05/14 00:36:41;;;;;;;1.30;1.20;;;20.50;41.70;;;;;;5012456;28;20244;-42
2021/05/14 00:39:06;;;;;;;1.33;1.10;;;20.50;41.60;;;;;;5006132;28;20268;-42
2021/05/14 00:41:32;;;;;;;1.00;0.90;;;20.50;41.40;;;;;;5009352;28;20190;-42
2021/05/14 00:43:58;;;;;;;0.83;0.83;;;20.50;41.50;;;;;;5014630;28;20237;-42
2021/05/14 00:46:25;;;;;;;1.20;1.13;;;20.50;41.30;;;;;;5013690;28;20194;-44
2021/05/14 00:48:50;;;;;;;1.00;0.90;;;20.60;41.30;;;;;;4999541;28;20205;-42
2021/05/14 00:51:16;;;;;;;1.47;0.90;;;20.60;41.00;;;;;;5009703;28;20440;-42
2021/05/14 00:53:42;;;;;;;1.20;0.93;;;20.50;41.30;;;;;;5010142;28;20204;-42
2021/05/14 00:56:08;;;;;;;1.90;1.27;;;20.50;41.30;;;;;;5010438;28;20293;-42
2021/05/14 00:58:33;;;;;;;1.27;1.00;;;20.50;41.50;;;;;;5010525;28;20483;-42
2021/05/14 01:00:59;;;;;;;1.33;1.10;;;20.40;41.40;;;;;;5009834;28;20233;-43
2021/05/14 01:03:25;;;;;;;1.70;1.00;;;20.40;41.80;;;;;;5003785;28;20248;-43
2021/05/14 01:05:50;;;;;;;1.53;1.10;;;20.40;41.90;;;;;;5009312;28;20196;-42
2021/05/14 01:08:16;;;;;;;1.20;1.10;;;20.20;42.80;;;;;;5009970;28;20441;-43
2021/05/14 01:10:42;;;;;;;1.43;1.33;;;20.10;43.20;;;;;;5003561;28;20230;-43
2021/05/14 01:13:08;;;;;;;1.30;1.20;;;20.10;43.20;;;;;;5004646;28;20202;-42
2021/05/14 01:15:33;;;;;;;1.30;1.20;;;20.10;43.00;;;;;;4997124;28;20222;-43
2021/05/14 01:17:59;;;;;;;2.30;1.60;;;20.00;43.00;;;;;;5011614;28;20202;-42
2021/05/14 01:20:29;;;;;;;1.10;1.00;;;19.90;43.50;;;;;;5006645;28;20186;-42
2021/05/14 01:22:55;;;;;;;2.10;1.50;;;19.80;44.10;;;;;;5005810;28;20229;-42
2021/05/14 01:25:20;;;;;;;1.17;1.07;;;19.90;43.80;;;;;;5010972;28;20995;-42
2021/05/14 01:27:46;;;;;;;3.40;1.40;;;19.90;43.60;;;;;;5002995;28;20923;-42
2021/05/14 01:30:12;;;;;;;1.30;1.20;;;19.80;43.60;;;;;;5008821;28;20194;-42
2021/05/14 01:32:38;;;;;;;1.63;1.10;;;19.80;43.70;;;;;;5008810;28;20202;-42
2021/05/14 01:35:04;;;;;;;0.90;0.90;;;19.70;43.80;;;;;;5002016;28;20575;-42
2021/05/14 01:37:30;;;;;;;1.23;1.13;;;19.70;44.10;;;;;;4999067;28;20272;-43
2021/05/14 01:39:56;;;;;;;1.20;1.10;;;19.60;44.40;;;;;;5009427;28;20465;-42
2021/05/14 01:42:21;;;;;;;3.07;1.03;;;19.60;44.20;;;;;;4997797;28;20247;-42
2021/05/14 01:44:47;;;;;;;1.27;1.00;;;19.50;44.60;;;;;;5011684;28;20716;-44
2021/05/14 01:47:17;;;;;;;1.53;1.37;;;19.50;44.70;;;;;;5004265;28;20186;-42
2021/05/14 01:49:43;;;;;;;3.53;1.00;;;19.50;44.50;;;;;;5008228;28;20194;-42
2021/05/14 01:52:08;;;;;;;1.10;1.00;;;19.40;44.80;;;;;;5008650;28;21298;-42
2021/05/14 01:54:34;;;;;;;1.20;1.10;;;19.20;45.60;;;;;;5012701;28;20230;-43
2021/05/14 01:57:00;;;;;;;1.57;1.20;;;19.20;45.20;;;;;;5011069;28;20198;-42
2021/05/14 01:59:25;;;;;;;2.70;2.03;;;19.20;45.00;;;;;;5008461;28;20525;-42
2021/05/14 02:01:51;;;;;;;1.33;1.23;;;19.30;45.00;;;;;;5008812;28;20193;-42
2021/05/14 02:04:16;;;;;;;1.23;1.13;;;19.40;44.80;;;;;;5000908;28;20692;-43
2021/05/14 02:06:42;;;;;;;2.17;1.17;;;19.40;44.40;;;;;;5001515;28;20193;-42
2021/05/14 02:09:07;;;;;;;1.03;1.03;;;19.50;44.90;;;;;;5006099;28;20190;-44
2021/05/14 02:11:33;;;;;;;1.30;1.20;;;19.40;44.80;;;;;;4996368;28;20183;-42
2021/05/14 02:13:59;;;;;;;1.10;1.10;;;19.40;45.20;;;;;;5005331;28;20283;-42
2021/05/14 02:16:25;;;;;;;1.10;0.97;;;19.20;45.50;;;;;;5007893;28;20198;-43
2021/05/14 02:18:51;;;;;;;1.40;1.23;;;19.00;46.00;;;;;;5006256;28;20449;-45
2021/05/14 02:21:16;;;;;;;3.33;1.47;;;18.70;46.50;;;;;;5003055;28;20223;-42
2021/05/14 02:23:42;;;;;;;1.30;1.20;;;18.50;46.70;;;;;;5008223;28;20197;-42
2021/05/14 02:26:07;;;;;;;1.10;1.00;;;18.60;47.10;;;;;;5006498;28;20272;-42
2021/05/14 02:28:34;;;;;;;3.03;1.50;;;18.70;46.70;;;;;;5006373;28;20198;-43
2021/05/14 02:31:00;;;;;;;1.30;1.20;;;18.70;47.00;;;;;;5002753;28;20674;-44
2021/05/14 02:33:26;;;;;;;1.80;1.03;;;18.90;46.70;;;;;;5005600;28;20452;-44
2021/05/14 02:35:51;;;;;;;2.13;1.50;;;18.90;46.30;;;;;;5001564;28;20486;-42
2021/05/14 02:38:17;;;;;;;1.00;1.00;;;18.80;46.60;;;;;;5006504;28;20234;-42
2021/05/14 02:40:43;;;;;;;1.70;1.40;;;18.70;46.70;;;;;;5004843;28;20657;-45
2021/05/14 02:43:09;;;;;;;1.10;1.00;;;18.80;47.20;;;;;;5006533;28;20459;-42
2021/05/14 02:45:35;;;;;;;1.20;1.10;;;18.90;46.10;;;;;;5001082;28;20453;-43
2021/05/14 02:48:01;;;;;;;0.97;0.97;;;18.90;45.90;;;;;;5007589;28;20224;-45
2021/05/14 02:50:26;;;;;;;2.30;1.47;;;18.90;45.90;;;;;;5010281;28;20453;-43
2021/05/14 02:52:52;;;;;;;2.23;1.10;;;18.90;45.70;;;;;;5004798;28;20202;-42
2021/05/14 02:55:18;;;;;;;5.90;0.93;;;18.90;45.50;;;;;;5014722;28;20233;-42
2021/05/14 02:57:44;;;;;;;1.77;1.00;;;18.80;45.80;;;;;;5014032;28;20194;-42
2021/05/14 03:00:11;;;;;;;1.30;1.20;;;18.60;46.40;;;;;;5007295;28;20555;-42
2021/05/14 03:02:36;;;;;;;2.30;1.13;;;18.60;46.30;;;;;;5010159;28;21077;-43
2021/05/14 03:05:03;;;;;;;2.53;1.10;;;18.50;46.30;;;;;;5008953;28;20441;-43
2021/05/14 03:07:29;;;;;;;1.97;1.47;;;18.40;46.80;;;;;;5013831;28;20291;-42
2021/05/14 03:09:55;;;;;;;0.97;0.97;;;18.30;46.50;;;;;;5008260;28;20944;-43
2021/05/14 03:12:20;;;;;;;1.43;1.33;;;18.20;46.90;;;;;;5012676;28;20201;-43
2021/05/14 03:14:46;;;;;;;2.43;1.20;;;18.30;47.00;;;;;;5010755;28;20238;-43
2021/05/14 03:17:12;;;;;;;3.00;1.40;;;18.50;46.40;;;;;;5009588;28;20220;-43
2021/05/14 03:19:37;;;;;;;2.57;1.20;;;18.60;46.10;;;;;;5011337;28;20194;-42
2021/05/14 03:22:03;;;;;;;2.27;1.50;;;18.70;46.20;;;;;;5002884;28;20249;-42
2021/05/14 03:24:28;;;;;;;0.90;0.90;;;18.70;45.70;;;;;;5007973;28;20197;-43
2021/05/14 03:26:54;;;;;;;1.80;1.20;;;18.60;45.80;;;;;;5004959;28;20198;-44
2021/05/14 03:29:21;;;;;;;1.17;1.07;;;18.60;45.60;;;;;;5008832;28;20238;-42
2021/05/14 03:31:46;;;;;;;1.73;1.30;;;18.60;45.90;;;;;;5014019;28;20200;-44
2021/05/14 03:34:12;;;;;;;1.40;0.90;;;18.60;45.70;;;;;;5010950;28;22319;-43
2021/05/14 03:36:38;;;;;;;1.40;1.30;;;18.60;45.80;;;;;;5009702;28;20244;-43
2021/05/14 03:39:08;;;;;;;1.23;1.10;;;18.60;45.70;;;;;;5006419;28;20488;-42
2021/05/14 03:41:48;;;;;;;1.30;1.20;;;18.60;45.70;;;;;;5011030;28;20281;-43
2021/05/14 03:44:13;;;;;;;1.90;1.70;;;18.60;45.80;;;;;;5008960;28;21500;-44
2021/05/14 03:46:39;;;;;;;1.70;1.60;;;18.60;46.00;;;;;;5007260;28;20803;-42
2021/05/14 03:49:05;;;;;;;2.13;1.20;;;18.40;46.00;;;;;;5006861;28;20209;-42
2021/05/14 03:51:31;;;;;;;1.47;1.30;;;18.40;46.30;;;;;;5003764;28;20193;-43
2021/05/14 03:53:56;;;;;;;2.23;1.37;;;18.40;46.00;;;;;;5001453;28;20206;-43
2021/05/14 03:56:22;;;;;;;1.37;1.27;;;18.50;45.80;;;;;;5005422;28;20654;-43
2021/05/14 03:58:48;;;;;;;1.30;1.20;;;18.50;46.00;;;;;;5005867;28;20865;-42
2021/05/14 04:01:13;;;;;;;4.30;1.37;;;18.60;45.60;;;;;;5005607;28;20221;-43
2021/05/14 04:03:39;;;;;;;1.50;1.40;;;18.70;45.50;;;;;;5013329;28;20620;-42
2021/05/14 04:06:04;;;;;;;2.20;1.50;;;18.70;45.50;;;;;;5011999;28;20276;-43
2021/05/14 04:08:30;;;;;;;1.30;1.20;;;18.70;45.60;;;;;;5008221;28;20658;-43
2021/05/14 04:16:24;;;;;;;1.60;1.17;;;18.50;45.50;;;;;;5003080;28;20503;-42
2021/05/14 04:18:50;;;;;;;1.70;1.33;;;18.50;45.80;;;;;;5005742;28;20913;-42
2021/05/14 04:21:15;;;;;;;1.60;1.40;;;18.60;45.80;;;;;;5004780;28;20194;-42
2021/05/14 04:23:41;;;;;;;2.20;1.13;;;18.60;45.10;;;;;;5005164;28;20201;-42
2021/05/14 04:26:07;;;;;;;1.53;1.30;;;18.60;44.80;;;;;;5003103;28;20354;-42
2021/05/14 04:28:33;;;;;;;1.63;1.30;;;18.60;44.80;;;;;;5003968;28;20578;-42
2021/05/14 04:30:58;;;;;;;3.20;1.47;;;18.60;45.10;;;;;;5004946;28;20643;-46
2021/05/14 04:33:24;;;;;;;4.90;1.50;;;18.50;44.90;;;;;;5004876;28;20194;-44
2021/05/14 04:35:50;;;;;;;2.40;1.50;;;18.40;45.10;;;;;;5012409;28;20228;-42
2021/05/14 04:38:15;;;;;;;1.90;1.10;;;18.40;45.90;;;;;;5010099;28;20724;-42
2021/05/14 04:40:41;;;;;;;1.50;1.10;;;18.40;45.70;;;;;;5010744;28;20198;-43
2021/05/14 04:43:07;;;;;;;2.10;1.40;;;18.50;45.50;;;;;;5003533;28;20592;-44
2021/05/14 04:45:32;;;;;;;2.33;1.47;;;18.50;45.10;;;;;;5010771;28;20190;-43
2021/05/14 04:47:58;;;;;;;2.37;1.50;;;18.60;45.00;;;;;;5006061;28;20236;-43
2021/05/14 04:50:24;;;;;;;1.23;0.90;;;18.50;45.30;;;;;;5010521;28;20205;-44
2021/05/14 04:53:07;;;;;;;2.20;1.83;;;18.60;45.20;;;;;;5008246;28;20448;-42
2021/05/14 04:55:33;;;;;;;1.20;1.10;;;18.60;44.90;;;;;;5004929;28;20226;-43
2021/05/14 04:57:59;;;;;;;2.17;1.60;;;18.70;44.70;;;;;;5008518;28;20815;-43
2021/05/14 05:00:25;;;;;;;5.80;1.77;;;18.70;45.30;;;;;;5009365;28;20441;-42
2021/05/14 05:02:51;;;;;;;4.40;1.67;;;18.80;44.50;;;;;;5005150;28;20202;-42
2021/05/14 05:05:19;;;;;;;1.37;1.10;;;18.70;44.50;;;;;;5008776;28;21375;-44
2021/05/14 05:07:44;;;;;;;1.50;1.40;;;18.70;44.80;;;;;;5010270;28;20920;-42
2021/05/14 05:10:10;;;;;;;2.10;1.57;;;18.60;45.10;;;;;;5009179;28;20586;-42
2021/05/14 05:12:36;;;;;;;1.77;1.27;;;18.50;45.50;;;;;;5011162;28;20718;-42
2021/05/14 05:15:01;;;;;;;4.47;1.30;;;18.50;45.20;;;;;;5010988;28;20595;-43
2021/05/14 05:17:27;;;;;;;2.57;1.70;;;18.40;45.40;;;;;;5005083;28;20190;-46
2021/05/14 05:19:55;;;;;;;1.77;1.40;;;18.10;45.70;;;;;;5000425;28;20276;-43
2021/05/14 05:22:23;;;;;;;2.53;1.63;;;17.80;46.30;;;;;;5006985;28;20810;-44
2021/05/14 05:24:49;;;;;;;1.37;1.10;;;17.70;47.00;;;;;;5008848;28;20615;-42
2021/05/14 05:27:15;;;;;;;3.33;1.63;;;17.80;46.90;;;;;;5006633;28;20509;-43
2021/05/14 05:29:41;;;;;;;1.30;1.20;;;17.80;47.10;;;;;;5008450;28;20457;-43
2021/05/14 05:32:07;;;;;;;1.30;1.20;;;17.70;46.90;;;;;;5008376;28;20467;-43
2021/05/14 05:34:33;;;;;;;1.40;1.30;;;17.70;47.90;;;;;;5005956;28;20360;-42
2021/05/14 05:36:59;;;;;;;1.97;1.50;;;17.70;47.40;;;;;;5007434;28;20448;-44
2021/05/14 05:39:25;;;;;;;1.70;1.27;;;17.70;47.20;;;;;;5006531;28;20979;-44
2021/05/14 05:41:50;;;;;;;2.73;1.33;;;17.90;46.90;;;;;;5008206;28;20215;-42
2021/05/14 05:44:16;;;;;;;2.17;1.40;;;18.00;46.80;;;;;;5011165;28;20255;-43
2021/05/14 05:46:42;;;;;;;2.60;1.63;;;18.10;46.60;;;;;;5007145;28;20197;-42
2021/05/14 05:49:08;;;;;;;2.30;1.40;;;18.30;46.30;;;;;;5005736;28;20537;-42
2021/05/14 05:51:33;;;;;;;4.23;1.37;;;18.40;45.80;;;;;;5007157;28;20665;-43
2021/05/14 05:54:00;;;;;;;1.57;1.10;;;18.50;45.60;;;;;;5006138;28;20194;-42
2021/05/14 05:56:26;;;;;;;4.10;1.57;;;18.60;45.60;;;;;;5008797;28;20211;-44
2021/05/14 05:58:53;;;;;;;3.20;1.47;;;18.60;45.60;;;;;;5006978;28;20895;-45
2021/05/14 06:01:19;;;;;;;3.97;1.30;;;18.70;45.70;;;;;;5000594;28;20472;-43
2021/05/14 06:03:45;;;;;;;1.87;1.77;;;18.40;45.90;;;;;;5006022;28;20436;-45
2021/05/14 06:06:10;;;;;;;3.33;1.60;;;18.40;46.10;;;;;;5008173;28;20437;-42
2021/05/14 06:08:37;;;;;;;1.70;1.60;;;18.60;46.10;;;;;;5011271;28;20211;-45
2021/05/14 06:11:03;;;;;;;2.77;1.30;;;18.70;46.00;;;;;;5004883;28;20182;-41
2021/05/14 06:13:29;;;;;;;0.90;0.80;;;18.80;45.50;;;;;;5008810;28;20429;-42
2021/05/14 06:15:58;;;;;;;1.77;1.23;;;18.90;45.30;;;;;;5010141;28;20868;-42
2021/05/14 06:18:25;;;;;;;1.20;1.10;;;19.10;45.50;;;;;;5010166;28;20444;-42
2021/05/14 06:20:52;;;;;;;2.23;1.40;;;19.20;45.30;;;;;;5008117;28;20449;-42
2021/05/14 06:23:17;;;;;;;2.33;1.50;;;19.30;45.10;;;;;;5010523;28;21155;-42
2021/05/14 06:25:43;;;;;;;2.33;1.50;;;19.40;44.70;;;;;;5010417;28;20531;-42
2021/05/14 06:28:17;;;;;;;2.03;1.40;;;19.50;44.50;;;;;;5010131;28;20230;-42
2021/05/14 06:30:42;;;;;;;1.90;1.30;;;19.70;44.70;;;;;;5004990;28;20614;-42
2021/05/14 06:33:08;;;;;;;1.10;1.10;;;19.70;44.20;;;;;;4995775;28;20437;-42
2021/05/14 06:35:34;;;;;;;1.20;1.10;;;19.60;44.40;;;;;;5010642;28;20221;-42
2021/05/14 06:38:00;;;;;;;1.70;1.30;;;19.60;44.30;;;;;;5003756;28;20234;-42
2021/05/14 06:40:26;;;;;;;1.40;1.30;;;19.60;44.50;;;;;;5010563;28;20437;-42
2021/05/14 06:42:51;;;;;;;1.30;1.20;;;19.70;45.50;;;;;;5002936;28;20597;-42
2021/05/14 06:45:17;;;;;;;1.13;1.03;;;19.80;44.70;;;;;;5003168;28;20194;-42
2021/05/14 06:47:43;;;;;;;2.07;1.20;;;19.90;44.10;;;;;;5010318;28;20272;-42
2021/05/14 06:50:09;;;;;;;9.20;3.17;;;19.90;44.10;;;;;;5004656;28;20191;-43
2021/05/14 06:52:36;;;;;;;1.83;1.00;;;20.00;43.90;;;;;;5003090;28;20293;-42
2021/05/14 06:55:07;;;;;;;1.03;0.90;;;20.10;43.90;;;;;;4997196;28;20969;-42
2021/05/14 06:57:33;;;;;;;2.30;0.90;;;20.20;44.00;;;;;;5010705;28;20858;-42
2021/05/14 06:59:59;;;;;;;1.30;1.10;;;20.40;43.40;;;;;;5005641;28;20930;-43
2021/05/14 07:02:25;;;;;;;1.13;0.77;;;20.50;43.40;;;;;;5002793;28;20460;-42
2021/05/14 07:04:50;;;;;;;2.97;1.20;;;20.60;43.00;;;;;;4992037;28;20195;-43
2021/05/14 07:07:17;;;;;;;1.20;1.10;;;20.60;43.50;;;;;;5010327;28;20194;-42
2021/05/14 07:09:46;;;;;;;2.97;1.00;;;20.70;43.50;;;;;;4998940;28;20662;-43
2021/05/14 07:12:12;;;;;;;1.77;1.00;;;20.80;43.30;;;;;;5004595;28;20460;-44
2021/05/14 07:14:38;;;;;;;1.27;1.17;;;20.90;43.40;;;;;;5000670;28;20532;-42
2021/05/14 07:17:04;;;;;;;1.57;1.10;;;21.00;43.40;;;;;;5004843;28;20939;-42
2021/05/14 07:19:29;;;;;;;3.30;0.87;;;21.00;43.50;;;;;;5010966;28;20248;-44
2021/05/14 07:21:55;;;;;;;1.60;0.70;;;21.10;42.90;;;;;;5010031;28;20235;-42
2021/05/14 07:24:21;;;;;;;0.60;0.60;;;21.10;42.20;;;;;;5010975;28;20608;-42
2021/05/14 07:26:47;;;;;;;1.90;0.80;;;21.20;43.00;;;;;;5005208;28;20190;-43
2021/05/14 07:29:13;;;;;;;0.80;0.80;;;21.30;41.90;;;;;;5008527;28;20256;-42
2021/05/14 07:31:38;;;;;;;0.80;0.80;;;21.30;41.50;;;;;;5000103;28;20434;-42
2021/05/14 07:34:04;;;;;;;0.77;0.60;;;21.40;41.70;;;;;;5000863;28;20445;-42
2021/05/14 07:36:30;;;;;;;3.90;0.70;;;21.50;41.40;;;;;;5008836;28;20194;-42
2021/05/14 07:38:56;;;;;;;0.90;0.80;;;21.60;41.70;;;;;;5004841;28;20560;-42
2021/05/14 07:41:22;;;;;;;4.10;0.70;;;21.80;41.00;;;;;;5013802;28;20198;-42
2021/05/14 07:43:47;;;;;;;0.70;0.60;;;21.80;42.00;;;;;;5004162;28;20202;-42
2021/05/14 07:46:13;;;;;;;1.80;0.67;;;21.80;41.20;;;;;;5012127;28;20853;-43
2021/05/14 07:48:39;;;;;;;0.90;0.90;;;21.90;40.60;;;;;;5010195;28;20222;-42
2021/05/14 07:51:04;;;;;;;0.77;0.77;;;21.90;40.40;;;;;;5006916;28;20197;-43
2021/05/14 07:53:30;;;;;;;2.17;0.80;;;21.70;40.80;;;;;;4999320;28;20241;-42
2021/05/14 07:55:56;;;;;;;0.70;0.70;;;21.90;40.10;;;;;;5007084;28;20877;-42
2021/05/14 07:58:22;;;;;;;1.97;0.80;;;22.00;40.20;;;;;;5006301;28;20651;-43
2021/05/14 08:00:50;;;;;;;0.93;0.80;;;22.20;41.90;;;;;;5013764;28;20240;-42
2021/05/14 08:03:16;;;;;;;2.00;0.70;;;22.30;41.60;;;;;;5005284;28;20429;-46
2021/05/14 08:05:46;;;;;;;1.00;0.90;;;22.50;40.30;;;;;;5009546;28;20452;-43
2021/05/14 08:08:13;;;;;;;1.67;1.10;;;22.70;41.20;;;;;;5010767;28;20437;-43
2021/05/14 08:10:39;;;;;;;2.97;1.20;;;22.90;40.00;;;;;;5011509;28;20453;-43
2021/05/14 08:13:05;;;;;;;1.90;0.80;;;23.00;39.80;;;;;;5009209;28;20430;-42
2021/05/14 08:15:31;;;;;;;1.23;0.90;;;23.00;38.70;;;;;;5009290;28;20226;-42
2021/05/14 08:17:56;;;;;;;1.20;0.90;;;22.60;38.40;;;;;;5011859;28;20443;-42
2021/05/14 08:20:23;;;;;;;0.93;0.77;;;22.60;39.00;;;;;;5014208;28;20225;-42
2021/05/14 08:22:50;;;;;;;1.40;1.07;;;22.70;39.80;;;;;;5012017;28;20550;-43
2021/05/14 08:25:16;;;;;;;0.70;0.70;;;22.80;39.90;;;;;;5011964;28;20927;-45
2021/05/14 08:27:42;;;;;;;3.13;0.80;;;22.90;39.10;;;;;;5005937;28;20464;-48
2021/05/14 08:30:10;;;;;;;1.43;0.80;;;23.00;38.40;;;;;;5011041;28;20445;-44
2021/05/14 08:32:36;;;;;;;1.17;0.80;;;22.90;38.20;;;;;;5003465;28;20458;-42
2021/05/14 08:35:03;;;;;;;1.03;0.80;;;22.50;39.50;;;;;;5008342;28;20484;-43
2021/05/14 08:37:28;;;;;;;1.60;1.00;;;22.60;39.90;;;;;;5003774;28;20825;-44
2021/05/14 08:39:54;;;;;;;1.20;0.73;;;22.60;39.30;;;;;;5009590;28;20450;-43
2021/05/14 08:42:19;;;;;;;2.23;0.70;;;22.50;39.20;;;;;;5007101;28;20189;-45
2021/05/14 08:44:45;;;;;;;2.00;0.70;;;22.30;39.50;;;;;;5004529;28;20205;-42
2021/05/14 08:47:12;;;;;;;1.17;0.57;;;22.30;39.70;;;;;;5006127;28;20230;-44
2021/05/14 08:49:38;;;;;;;1.17;0.87;;;22.20;39.50;;;;;;5010776;28;20646;-43
2021/05/14 08:52:07;;;;;;;0.87;0.80;;;22.20;39.50;;;;;;5003215;28;20523;-42
2021/05/14 08:54:34;;;;;;;0.77;0.63;;;22.10;39.40;;;;;;4998842;28;20476;-43
2021/05/14 08:57:00;;;;;;;1.33;1.00;;;22.00;39.60;;;;;;5003673;28;20495;-42
2021/05/14 08:59:25;;;;;;;1.23;0.70;;;22.10;39.70;;;;;;5010690;28;20445;-43
2021/05/14 09:01:51;;;;;;;0.90;0.80;;;22.20;40.00;;;;;;5011012;28;20244;-45
2021/05/14 09:04:19;;;;;;;1.63;0.93;;;22.10;39.80;;;;;;5008450;28;20213;-45
2021/05/14 09:06:45;;;;;;;1.60;0.73;;;22.20;39.40;;;;;;5001141;28;20202;-44
2021/05/14 09:09:12;;;;;;;1.67;0.70;;;22.30;39.40;;;;;;5007272;28;20444;-43
2021/05/14 09:11:51;;;;;;;1.10;0.90;;;22.40;39.70;;;;;;5006957;28;20453;-43
2021/05/14 09:14:44;;;;;;;1.57;0.70;;;22.40;38.10;;;;;;5000019;28;20482;-44
2021/05/14 09:17:17;;;;;;;1.23;0.87;;;22.40;38.00;;;;;;5006365;28;20449;-44
2021/05/14 09:19:45;;;;;;;0.70;0.63;;;22.40;38.70;;;;;;5006742;28;20437;-44
2021/05/14 09:22:24;;;;;;;1.73;0.77;;;22.30;39.10;;;;;;5002607;28;20960;-45
2021/05/14 09:24:58;;;;;;;1.13;0.70;;;22.30;38.50;;;;;;5005386;28;20453;-43
2021/05/14 09:27:29;;;;;;;2.27;0.90;;;22.30;38.80;;;;;;5006748;28;20551;-44
2021/05/14 09:29:58;;;;;;;0.60;0.60;;;22.30;39.10;;;;;;5011383;28;20798;-44
2021/05/14 09:32:28;;;;;;;1.50;0.80;;;22.30;39.10;;;;;;5002392;28;20429;-42
2021/05/14 09:34:59;;;;;;;0.70;0.70;;;22.30;39.90;;;;;;5010950;28;20879;-43
2021/05/14 09:37:25;;;;;;;4.40;1.80;;;22.40;38.80;;;;;;5000328;28;20437;-42
2021/05/14 09:40:13;;;;;;;4.23;1.43;;;22.50;39.50;;;;;;5010109;28;20627;-42
2021/05/14 09:42:39;;;;;;;5.30;1.17;;;22.60;38.60;;;;;;5009403;28;20456;-42
2021/05/14 09:45:22;;;;;;;1.87;1.20;;;22.70;38.60;;;;;;5009035;28;20440;-42
2021/05/14 09:48:15;;;;;;;4.77;2.43;;;22.90;38.30;;;;;;5006029;28;20462;-42
2021/05/14 09:50:43;;;;;;;2.10;0.90;;;23.00;37.90;;;;;;5007321;28;20949;-42
2021/05/14 09:53:12;;;;;;;1.47;0.90;;;23.00;36.80;;;;;;5009497;28;20437;-43
2021/05/14 09:55:43;;;;;;;1.50;0.77;;;23.10;37.10;;;;;;5010606;28;21011;-43
2021/05/14 09:58:12;;;;;;;0.90;0.70;;;23.20;37.30;;;;;;5003265;28;20498;-42
2021/05/14 10:00:38;;;;;;;0.90;0.60;;;22.90;37.40;;;;;;5007191;28;20449;-43
2021/05/14 10:03:05;;;;;;;0.60;0.60;;;22.90;36.60;;;;;;5007757;28;20433;-43
2021/05/14 10:05:31;;;;;;;0.67;0.67;;;22.70;37.70;;;;;;5010158;28;20560;-43
2021/05/14 10:08:05;;;;;;;1.70;1.00;;;22.50;38.80;;;;;;5007950;28;20442;-43
2021/05/14 10:10:35;;;;;;;1.00;0.70;;;22.10;41.30;;;;;;5004226;28;20451;-43
2021/05/14 10:13:01;;;;;;;0.80;0.80;;;21.70;42.10;;;;;;5008891;28;20445;-43
2021/05/14 10:15:27;;;;;;;1.20;0.87;;;21.60;41.80;;;;;;5010685;28;20484;-42
2021/05/14 10:17:54;;;;;;;1.33;0.80;;;21.40;42.80;;;;;;5013524;28;20449;-42
2021/05/14 10:20:24;;;;;;;1.20;0.97;;;21.30;43.90;;;;;;5001691;28;20208;-42
2021/05/14 10:22:51;;;;;;;0.90;0.90;;;21.60;46.00;;;;;;5006612;28;20441;-42
2021/05/14 10:25:46;;;;;;;1.83;1.03;;;21.70;46.60;;;;;;5009399;28;20451;-42
2021/05/14 10:28:14;;;;;;;5.20;2.07;;;21.80;46.40;;;;;;5007369;28;20448;-43
2021/05/14 10:31:00;;;;;;;4.30;2.00;;;21.80;46.20;;;;;;5010599;28;20449;-41
2021/05/14 10:33:59;;;;;;;3.17;1.90;;;21.90;45.70;;;;;;5009170;28;20495;-43
2021/05/14 10:36:25;;;;;;;2.93;1.30;;;21.90;44.40;;;;;;4985634;28;20539;-42
2021/05/14 10:39:11;;;;;;;2.57;1.30;;;22.00;43.10;;;;;;5003938;28;20473;-42
2021/05/14 10:41:46;;;;;;;2.93;1.33;;;22.10;41.90;;;;;;5014393;28;20995;-45
2021/05/14 10:44:13;;;;;;;5.40;1.57;;;22.20;42.20;;;;;;5000111;28;20836;-42
2021/05/14 10:46:38;;;;;;;7.50;3.50;;;22.40;41.60;;;;;;5006839;28;20441;-42
2021/05/14 10:49:09;;;;;;;3.57;2.10;;;22.60;44.30;;;;;;5007070;28;20899;-43
2021/05/14 10:52:02;;;;;;;5.63;2.20;;;23.00;43.50;;;;;;5010862;28;20197;-43
2021/05/14 10:54:39;;;;;;;3.90;1.07;;;23.40;40.30;;;;;;4993697;28;20473;-43
2021/05/14 10:57:13;;;;;;;1.43;1.33;;;23.60;38.90;;;;;;5009171;28;20562;-42
2021/05/14 10:59:39;;;;;;;3.70;1.97;;;23.80;37.70;;;;;;5009608;28;20445;-42
2021/05/14 11:02:28;;;;;;;2.07;0.97;;;24.00;37.00;;;;;;4998678;28;20452;-43
2021/05/14 11:04:54;;;;;;;1.77;1.00;;;24.00;36.20;;;;;;5007539;28;20972;-42
2021/05/14 11:07:40;;;;;;;1.77;0.77;;;23.90;35.30;;;;;;5010091;28;20990;-45
2021/05/14 11:10:36;;;;;;;2.53;0.90;;;23.80;35.70;;;;;;5010477;28;20445;-42
2021/05/14 11:13:38;;;;;;;0.93;0.90;;;23.60;35.20;;;;;;5006029;28;20464;-42
2021/05/14 11:16:33;;;;;;;1.50;0.70;;;23.20;35.80;;;;;;5013473;28;20483;-42
2021/05/14 11:19:18;;;;;;;1.83;1.00;;;22.40;38.50;;;;;;5012826;28;20437;-42
2021/05/14 11:22:05;;;;;;;1.90;0.90;;;22.10;42.90;;;;;;5005572;28;20924;-41
2021/05/14 11:25:02;;;;;;;1.70;1.10;;;21.60;45.90;;;;;;5013422;28;20502;-42
2021/05/14 11:27:30;;;;;;;1.80;0.90;;;21.50;47.00;;;;;;5019133;28;20459;-41
2021/05/14 11:30:00;;;;;;;1.90;0.77;;;21.60;47.40;;;;;;5003620;28;20954;-42
2021/05/14 11:32:34;;;;;;;2.97;1.10;;;21.90;45.20;;;;;;5013494;28;20456;-42
2021/05/14 11:35:09;;;;;;;0.80;0.70;;;22.20;45.40;;;;;;5019358;28;21077;-42
2021/05/14 11:37:51;;;;;;;1.67;0.70;;;22.30;45.20;;;;;;5012325;28;20955;-43
2021/05/14 11:40:21;;;;;;;0.80;0.80;;;22.50;43.00;;;;;;5013342;28;20445;-43
2021/05/14 11:42:50;;;;;;;0.60;0.60;;;22.60;43.30;;;;;;5007057;28;20460;-44
2021/05/14 11:45:27;;;;;;;1.03;0.70;;;22.70;43.40;;;;;;5009258;28;20443;-42
2021/05/14 11:48:00;;;;;;;1.37;0.80;;;22.90;44.70;;;;;;5007084;28;20448;-41
2021/05/14 11:50:28;;;;;;;0.80;0.70;;;22.70;45.30;;;;;;5014155;28;20440;-41
2021/05/14 11:52:54;;;;;;;0.60;0.60;;;22.70;45.70;;;;;;5022874;28;21117;-41
2021/05/14 11:55:21;;;;;;;0.70;0.70;;;22.70;45.60;;;;;;5005162;28;20496;-41
2021/05/14 11:57:55;;;;;;;0.67;0.57;;;22.60;45.70;;;;;;5013224;28;21250;-43
2021/05/14 12:00:26;;;;;;;0.70;0.60;;;22.60;46.30;;;;;;5021636;28;20458;-43
2021/05/14 12:02:52;;;;;;;2.40;0.97;;;22.50;46.70;;;;;;5022724;28;20439;-43
2021/05/14 12:05:20;;;;;;;1.37;1.00;;;22.50;45.80;;;;;;5022489;28;20506;-44
2021/05/14 12:07:45;;;;;;;0.83;0.67;;;22.80;46.40;;;;;;5000370;28;20204;-44
2021/05/14 12:10:13;;;;;;;1.63;0.97;;;23.00;43.90;;;;;;5014980;28;20441;-43
2021/05/14 12:12:40;;;;;;;1.27;0.70;;;23.40;41.60;;;;;;5016840;28;20198;-44
2021/05/14 12:15:11;;;;;;;0.60;0.53;;;23.60;41.60;;;;;;5025432;28;20495;-43
2021/05/14 12:17:38;;;;;;;1.43;0.70;;;23.90;41.20;;;;;;5019567;28;20440;-44
2021/05/14 12:20:42;;;;;;;0.83;0.70;;;24.20;40.70;;;;;;5012044;28;20434;-43
2021/05/14 12:23:10;;;;;;;1.00;0.80;;;24.20;40.10;;;;;;5004311;28;20445;-42
2021/05/14 12:25:42;;;;;;;1.27;0.80;;;24.50;36.00;;;;;;5007412;28;20531;-44
2021/05/14 12:28:33;;;;;;;0.93;0.70;;;24.60;35.30;;;;;;5011981;28;20460;-45
2021/05/14 12:31:04;;;;;;;0.77;0.70;;;24.80;34.70;;;;;;5016742;28;20436;-42
2021/05/14 12:33:29;;;;;;;0.70;0.70;;;24.80;32.70;;;;;;5008383;28;20476;-46
2021/05/14 12:36:04;;;;;;;0.90;0.70;;;24.80;34.30;;;;;;5003923;28;20566;-41
2021/05/14 12:38:50;;;;;;;3.03;1.63;;;24.90;33.90;;;;;;5000783;28;20237;-44
2021/05/14 12:41:25;;;;;;;1.50;0.70;;;25.00;33.80;;;;;;5013930;28;20437;-43
2021/05/14 12:44:06;;;;;;;0.80;0.73;;;25.30;34.10;;;;;;5008714;28;20437;-43
2021/05/14 12:46:31;;;;;;;1.17;1.03;;;25.60;33.70;;;;;;5011632;28;20484;-43
2021/05/14 12:49:11;;;;;;;1.30;0.77;;;25.80;32.90;;;;;;5010233;28;20504;-42
2021/05/14 12:51:39;;;;;;;0.70;0.70;;;25.80;32.80;;;;;;5009073;28;20251;-42
2021/05/14 12:54:05;;;;;;;0.60;0.60;;;25.90;31.10;;;;;;5009191;28;20483;-42
2021/05/14 12:56:31;;;;;;;0.90;0.90;;;25.90;32.60;;;;;;5012299;28;20440;-41
2021/05/14 12:59:02;;;;;;;2.20;1.60;;;25.90;33.40;;;;;;5014485;28;20440;-43